Time;durP1;ratioP1;P1;durP2;ratioP2;P2;SDS_P1;SDS_P2;PMS_P1;PMS_P2;Temp;Humidity;BMP_temperature;BMP_pressure;BME280_temperature;BME280_humidity;BME280_pressure;Samples;Min_cycle;Max_cycle;Signal;HPM_P1;HPM_P2
2023/09/15 00:02:30;;;;;;;4.60;2.00;;;;;;;;;;110302;268;39877;-37
2023/09/15 00:05:08;;;;;;;4.20;1.70;;;;;;;;;;110333;268;42777;-38
2023/09/15 00:07:43;;;;;;;4.30;1.90;;;;;;;;;;110305;268;42106;-38
2023/09/15 00:10:19;;;;;;;4.00;1.80;;;;;;;;;;110317;268;45125;-38
2023/09/15 00:12:52;;;;;;;4.50;1.90;;;;;;;;;;110318;268;39692;-38
2023/09/15 00:15:29;;;;;;;4.00;1.80;;;;;;;;;;110316;268;42881;-38
2023/09/15 00:18:03;;;;;;;3.90;1.80;;;;;;;;;;110266;268;42012;-38
2023/09/15 00:20:40;;;;;;;3.70;1.80;;;;;;;;;;110265;268;45226;-38
2023/09/15 00:23:17;;;;;;;4.00;1.70;;;;;;;;;;110332;268;39769;-37
2023/09/15 00:25:54;;;;;;;4.30;1.70;;;;;;;;;;110192;268;175469;-38
2023/09/15 00:28:30;;;;;;;3.50;1.50;;;;;;;;;;110250;268;43210;-37
2023/09/15 00:31:10;;;;;;;4.30;1.70;;;;;;;;;;110308;268;38668;-38
2023/09/15 00:33:48;;;;;;;3.90;1.60;;;;;;;;;;110286;268;39702;-38
2023/09/15 00:36:22;;;;;;;4.00;1.80;;;;;;;;;;110343;268;42449;-38
2023/09/15 00:38:58;;;;;;;3.60;1.50;;;;;;;;;;110318;268;42264;-38
2023/09/15 00:41:32;;;;;;;4.10;1.80;;;;;;;;;;110291;268;39799;-38
2023/09/15 00:44:06;;;;;;;3.50;1.60;;;;;;;;;;110288;268;39760;-38
2023/09/15 00:46:40;;;;;;;4.50;1.70;;;;;;;;;;110324;268;43173;-38
2023/09/15 00:49:15;;;;;;;3.80;1.60;;;;;;;;;;110256;268;41891;-37
2023/09/15 00:51:56;;;;;;;3.80;1.70;;;;;;;;;;110304;268;39893;-38
2023/09/15 00:54:34;;;;;;;3.70;1.60;;;;;;;;;;110312;268;39449;-38
2023/09/15 00:57:12;;;;;;;3.80;1.60;;;;;;;;;;110324;268;42922;-38
2023/09/15 00:59:48;;;;;;;3.80;1.70;;;;;;;;;;110276;268;42006;-38
2023/09/15 01:02:24;;;;;;;3.50;1.60;;;;;;;;;;110358;268;38698;-38
2023/09/15 01:04:59;;;;;;;4.40;1.50;;;;;;;;;;109661;268;893284;-37
2023/09/15 01:07:35;;;;;;;3.90;1.50;;;;;;;;;;110302;268;42627;-37
2023/09/15 01:10:14;;;;;;;4.00;1.50;;;;;;;;;;110279;268;42334;-37
2023/09/15 01:12:50;;;;;;;4.10;1.60;;;;;;;;;;110317;268;38880;-38
2023/09/15 01:15:30;;;;;;;3.80;1.50;;;;;;;;;;110322;268;39586;-37
2023/09/15 01:18:19;;;;;;;3.80;1.60;;;;;;;;;;110295;268;42694;-37
2023/09/15 01:21:25;;;;;;;3.70;1.40;;;;;;;;;;110293;268;41995;-37
2023/09/15 01:24:38;;;;;;;3.80;1.60;;;;;;;;;;110278;268;39881;-37
2023/09/15 01:27:42;;;;;;;4.00;1.60;;;;;;;;;;110328;268;39643;-36
2023/09/15 01:30:20;;;;;;;3.40;1.30;;;;;;;;;;110297;268;43894;-38
2023/09/15 01:32:58;;;;;;;3.50;1.40;;;;;;;;;;110348;268;41765;-37
2023/09/15 01:35:33;;;;;;;3.40;1.50;;;;;;;;;;110324;268;38668;-37
2023/09/15 01:38:13;;;;;;;4.00;1.60;;;;;;;;;;110302;268;39434;-38
2023/09/15 01:40:49;;;;;;;4.90;1.40;;;;;;;;;;110275;268;42875;-37
2023/09/15 01:43:25;;;;;;;3.60;1.50;;;;;;;;;;110320;268;42006;-38
2023/09/15 01:46:10;;;;;;;3.70;1.40;;;;;;;;;;110317;268;38709;-38
2023/09/15 01:48:46;;;;;;;3.60;1.50;;;;;;;;;;110319;268;40724;-37
2023/09/15 01:51:22;;;;;;;4.20;1.50;;;;;;;;;;110275;268;44141;-37
2023/09/15 01:54:02;;;;;;;3.80;1.50;;;;;;;;;;110312;268;43460;-37
2023/09/15 01:56:39;;;;;;;3.80;1.70;;;;;;;;;;110310;268;39937;-37
2023/09/15 01:59:14;;;;;;;3.40;1.60;;;;;;;;;;110351;268;39760;-37
2023/09/15 02:01:48;;;;;;;3.80;1.50;;;;;;;;;;110293;268;42760;-38
2023/09/15 02:04:24;;;;;;;3.60;1.60;;;;;;;;;;110322;268;43410;-37
2023/09/15 02:07:00;;;;;;;3.40;1.40;;;;;;;;;;110341;268;39768;-37
2023/09/15 02:09:35;;;;;;;3.50;1.40;;;;;;;;;;110302;268;41092;-38
2023/09/15 02:12:10;;;;;;;3.30;1.50;;;;;;;;;;110225;268;42757;-37
2023/09/15 02:14:44;;;;;;;3.70;1.40;;;;;;;;;;110331;268;43331;-37
2023/09/15 02:17:21;;;;;;;3.30;1.40;;;;;;;;;;110207;268;40656;-38
2023/09/15 02:19:57;;;;;;;3.80;1.50;;;;;;;;;;110348;268;39799;-37
2023/09/15 02:22:34;;;;;;;3.70;1.40;;;;;;;;;;110285;268;44050;-38
2023/09/15 02:25:10;;;;;;;3.40;1.40;;;;;;;;;;110334;268;42207;-38
2023/09/15 02:27:46;;;;;;;3.40;1.30;;;;;;;;;;110199;268;38952;-37
2023/09/15 02:30:21;;;;;;;3.30;1.40;;;;;;;;;;110352;268;39636;-37
2023/09/15 02:32:56;;;;;;;3.80;1.40;;;;;;;;;;110315;268;42877;-37
2023/09/15 02:35:32;;;;;;;3.40;1.40;;;;;;;;;;110213;268;175505;-38
2023/09/15 02:38:07;;;;;;;3.90;1.50;;;;;;;;;;110335;268;40234;-37
2023/09/15 02:40:40;;;;;;;3.70;1.40;;;;;;;;;;110321;268;39735;-37
2023/09/15 02:43:17;;;;;;;4.70;1.60;;;;;;;;;;110257;268;48314;-38
2023/09/15 02:45:52;;;;;;;3.30;1.30;;;;;;;;;;110310;268;43509;-37
2023/09/15 02:48:26;;;;;;;4.10;1.30;;;;;;;;;;110300;268;38914;-37
2023/09/15 02:51:06;;;;;;;3.60;1.40;;;;;;;;;;110292;268;39564;-37
2023/09/15 02:53:42;;;;;;;3.10;1.40;;;;;;;;;;110169;268;51053;-37
2023/09/15 02:56:17;;;;;;;3.60;1.50;;;;;;;;;;110305;268;41898;-37
2023/09/15 02:58:52;;;;;;;3.50;1.20;;;;;;;;;;110301;268;39793;-37
2023/09/15 03:01:26;;;;;;;3.30;1.40;;;;;;;;;;110262;264;39566;-37
2023/09/15 03:03:59;;;;;;;3.40;1.40;;;;;;;;;;110323;268;49036;-37
2023/09/15 03:06:36;;;;;;;4.20;1.60;;;;;;;;;;110184;268;175568;-37
2023/09/15 03:09:13;;;;;;;3.30;1.40;;;;;;;;;;110296;268;38844;-38
2023/09/15 03:11:47;;;;;;;4.60;1.40;;;;;;;;;;110266;268;39730;-37
2023/09/15 03:14:23;;;;;;;3.30;1.30;;;;;;;;;;110289;268;44948;-37
2023/09/15 03:17:00;;;;;;;3.90;1.50;;;;;;;;;;110324;268;42177;-37
2023/09/15 03:19:38;;;;;;;3.20;1.30;;;;;;;;;;110330;268;39848;-38
2023/09/15 03:22:14;;;;;;;3.80;1.50;;;;;;;;;;110281;267;39616;-36
2023/09/15 03:24:48;;;;;;;4.30;1.60;;;;;;;;;;110360;267;43075;-37
2023/09/15 03:27:26;;;;;;;3.40;1.40;;;;;;;;;;110345;267;41998;-37
2023/09/15 03:30:04;;;;;;;3.90;1.20;;;;;;;;;;110325;267;38843;-37
2023/09/15 03:32:39;;;;;;;3.90;1.60;;;;;;;;;;110303;264;39910;-37
2023/09/15 03:35:14;;;;;;;3.70;1.60;;;;;;;;;;110262;267;43910;-37
2023/09/15 03:37:50;;;;;;;4.00;1.40;;;;;;;;;;110308;267;42180;-36
2023/09/15 03:40:24;;;;;;;3.80;1.40;;;;;;;;;;110328;267;38657;-37
2023/09/15 03:42:59;;;;;;;3.90;1.40;;;;;;;;;;110281;267;39570;-37
2023/09/15 03:45:34;;;;;;;4.50;1.60;;;;;;;;;;110302;267;43078;-37
2023/09/15 03:48:12;;;;;;;3.30;1.30;;;;;;;;;;110355;267;42289;-37
2023/09/15 03:50:47;;;;;;;3.80;1.50;;;;;;;;;;110354;267;38682;-37
2023/09/15 03:53:23;;;;;;;3.70;1.50;;;;;;;;;;110279;260;39811;-37
2023/09/15 03:56:00;;;;;;;3.10;1.30;;;;;;;;;;110356;267;44825;-37
2023/09/15 03:58:36;;;;;;;4.00;1.40;;;;;;;;;;110240;267;124230;-37
2023/09/15 04:01:23;;;;;;;4.50;1.70;;;;;;;;;;110323;267;39134;-37
2023/09/15 04:03:59;;;;;;;3.50;1.40;;;;;;;;;;110317;267;39659;-37
2023/09/15 04:06:37;;;;;;;4.50;1.70;;;;;;;;;;110375;267;42817;-37
2023/09/15 04:09:12;;;;;;;3.50;1.30;;;;;;;;;;110345;267;43145;-37
2023/09/15 04:11:46;;;;;;;3.50;1.60;;;;;;;;;;110287;267;38457;-37
2023/09/15 04:14:21;;;;;;;3.90;1.50;;;;;;;;;;110345;267;39748;-37
2023/09/15 04:16:56;;;;;;;3.70;1.40;;;;;;;;;;110366;267;44001;-37
2023/09/15 04:19:30;;;;;;;3.70;1.40;;;;;;;;;;110376;267;43215;-37
2023/09/15 04:22:06;;;;;;;3.20;1.20;;;;;;;;;;110309;267;38875;-37
2023/09/15 04:24:40;;;;;;;3.70;1.50;;;;;;;;;;110305;267;40877;-37
2023/09/15 04:27:15;;;;;;;3.20;1.20;;;;;;;;;;110263;267;42693;-37
2023/09/15 04:29:58;;;;;;;3.70;1.60;;;;;;;;;;110360;267;42444;-37
2023/09/15 04:32:34;;;;;;;3.30;1.40;;;;;;;;;;110308;267;38825;-37
2023/09/15 04:35:09;;;;;;;4.20;1.40;;;;;;;;;;110306;267;39560;-37
2023/09/15 04:37:46;;;;;;;4.10;1.40;;;;;;;;;;110292;267;42936;-37
2023/09/15 04:40:24;;;;;;;3.20;1.30;;;;;;;;;;110298;267;43365;-37
2023/09/15 04:42:59;;;;;;;3.70;1.50;;;;;;;;;;110331;267;40235;-37
2023/09/15 04:45:34;;;;;;;3.50;1.40;;;;;;;;;;110283;267;42225;-38
2023/09/15 04:48:09;;;;;;;4.30;1.40;;;;;;;;;;110257;267;43226;-37
2023/09/15 04:50:45;;;;;;;3.40;1.30;;;;;;;;;;110326;267;42460;-37
2023/09/15 04:53:20;;;;;;;3.20;1.40;;;;;;;;;;110289;267;39212;-37
2023/09/15 04:55:57;;;;;;;3.90;1.40;;;;;;;;;;110132;267;175106;-38
2023/09/15 04:58:33;;;;;;;3.60;1.40;;;;;;;;;;110312;267;42709;-37
2023/09/15 05:01:16;;;;;;;3.20;1.30;;;;;;;;;;110313;267;42331;-37
2023/09/15 05:03:53;;;;;;;4.00;1.30;;;;;;;;;;110299;267;39627;-37
2023/09/15 05:06:27;;;;;;;3.40;1.40;;;;;;;;;;110321;267;46235;-37
2023/09/15 05:09:01;;;;;;;3.40;1.20;;;;;;;;;;110344;267;44069;-37
2023/09/15 05:11:37;;;;;;;3.90;1.40;;;;;;;;;;110372;267;42142;-37
2023/09/15 05:14:15;;;;;;;3.30;1.30;;;;;;;;;;110318;267;39497;-37
2023/09/15 05:16:51;;;;;;;3.50;1.30;;;;;;;;;;110361;267;46052;-37
2023/09/15 05:19:32;;;;;;;3.40;1.30;;;;;;;;;;110324;267;42850;-37
2023/09/15 05:22:12;;;;;;;3.10;1.30;;;;;;;;;;110352;267;43257;-37
2023/09/15 05:24:46;;;;;;;3.10;1.30;;;;;;;;;;110207;267;39328;-37
2023/09/15 05:27:19;;;;;;;3.10;1.30;;;;;;;;;;110356;267;39538;-37
2023/09/15 05:29:55;;;;;;;4.20;1.50;;;;;;;;;;110361;267;42704;-37
2023/09/15 05:32:31;;;;;;;3.40;1.10;;;;;;;;;;110372;267;44057;-37
2023/09/15 05:35:09;;;;;;;3.80;1.40;;;;;;;;;;110328;267;38755;-37
2023/09/15 05:37:44;;;;;;;4.30;1.50;;;;;;;;;;110342;267;39755;-37
2023/09/15 05:40:18;;;;;;;4.70;1.70;;;;;;;;;;110358;267;42894;-37
2023/09/15 05:42:54;;;;;;;4.10;1.70;;;;;;;;;;110354;267;42562;-37
2023/09/15 05:45:30;;;;;;;5.80;1.80;;;;;;;;;;110340;267;38742;-37
2023/09/15 05:48:05;;;;;;;5.60;1.80;;;;;;;;;;110359;267;39785;-37
2023/09/15 05:50:43;;;;;;;4.40;1.50;;;;;;;;;;110346;267;42949;-37
2023/09/15 05:53:16;;;;;;;5.50;1.80;;;;;;;;;;110346;267;41953;-37
2023/09/15 05:55:51;;;;;;;5.30;1.70;;;;;;;;;;110307;267;38564;-37
2023/09/15 05:58:29;;;;;;;5.30;1.70;;;;;;;;;;110323;267;39598;-37
2023/09/15 06:01:08;;;;;;;5.40;1.40;;;;;;;;;;110333;267;42643;-37
2023/09/15 06:03:43;;;;;;;4.10;1.70;;;;;;;;;;110343;267;41426;-37
2023/09/15 06:06:17;;;;;;;5.20;1.70;;;;;;;;;;110251;258;39953;-37
2023/09/15 06:08:53;;;;;;;4.70;1.70;;;;;;;;;;110354;267;39648;-37
2023/09/15 06:11:30;;;;;;;4.80;1.80;;;;;;;;;;110322;267;42721;-37
2023/09/15 06:14:06;;;;;;;5.10;1.60;;;;;;;;;;110353;267;42015;-37
2023/09/15 06:16:41;;;;;;;5.50;1.70;;;;;;;;;;110304;267;38765;-37
2023/09/15 06:19:16;;;;;;;5.60;1.70;;;;;;;;;;109660;267;893211;-37
2023/09/15 06:21:50;;;;;;;5.50;1.70;;;;;;;;;;110242;267;175488;-37
2023/09/15 06:24:26;;;;;;;5.20;1.70;;;;;;;;;;110378;267;41973;-37
2023/09/15 06:27:00;;;;;;;5.10;1.90;;;;;;;;;;110282;267;38780;-37
2023/09/15 06:29:34;;;;;;;5.40;1.70;;;;;;;;;;110362;267;39737;-37
2023/09/15 06:32:09;;;;;;;5.30;1.80;;;;;;;;;;110357;267;45317;-37
2023/09/15 06:34:46;;;;;;;4.80;1.50;;;;;;;;;;110373;267;42190;-37
2023/09/15 06:37:22;;;;;;;4.50;1.60;;;;;;;;;;110277;267;38895;-37
2023/09/15 06:39:56;;;;;;;5.40;1.70;;;;;;;;;;110366;267;39744;-37
2023/09/15 06:42:34;;;;;;;6.10;1.70;;;;;;;;;;110366;267;42777;-37
2023/09/15 06:45:10;;;;;;;5.10;1.60;;;;;;;;;;110371;267;43088;-37
2023/09/15 06:47:44;;;;;;;5.70;1.90;;;;;;;;;;110341;267;38946;-37
2023/09/15 06:50:18;;;;;;;5.10;1.70;;;;;;;;;;110350;267;39599;-37
2023/09/15 06:52:51;;;;;;;5.70;1.80;;;;;;;;;;110359;267;42981;-37
2023/09/15 06:55:28;;;;;;;4.80;1.70;;;;;;;;;;110352;267;42116;-37
2023/09/15 06:58:01;;;;;;;4.80;1.80;;;;;;;;;;110327;267;39186;-37
2023/09/15 07:00:39;;;;;;;5.50;2.10;;;;;;;;;;110321;267;39702;-37
2023/09/15 07:03:12;;;;;;;5.80;2.10;;;;;;;;;;110293;267;43752;-37
2023/09/15 07:05:48;;;;;;;5.10;1.90;;;;;;;;;;110307;267;42371;-37
2023/09/15 07:08:22;;;;;;;6.20;2.10;;;;;;;;;;110304;267;38647;-37
2023/09/15 07:10:58;;;;;;;7.20;2.00;;;;;;;;;;110355;267;39608;-37
2023/09/15 07:13:33;;;;;;;5.70;2.10;;;;;;;;;;110360;267;42961;-37
2023/09/15 07:16:08;;;;;;;6.60;2.20;;;;;;;;;;110300;267;42101;-37
2023/09/15 07:18:41;;;;;;;5.40;2.00;;;;;;;;;;110268;267;39248;-37
2023/09/15 07:21:16;;;;;;;5.30;1.90;;;;;;;;;;110315;267;40953;-37
2023/09/15 07:23:52;;;;;;;5.40;2.10;;;;;;;;;;110315;267;42756;-37
2023/09/15 07:26:31;;;;;;;5.10;2.00;;;;;;;;;;110282;267;41744;-37
2023/09/15 07:29:06;;;;;;;5.70;1.90;;;;;;;;;;110291;267;38736;-37
2023/09/15 07:31:42;;;;;;;6.10;2.10;;;;;;;;;;110326;267;41256;-37
2023/09/15 07:34:21;;;;;;;6.20;2.10;;;;;;;;;;110325;267;44149;-37
2023/09/15 07:36:59;;;;;;;6.70;2.00;;;;;;;;;;110264;267;42258;-37
2023/09/15 07:39:34;;;;;;;6.60;2.10;;;;;;;;;;110367;267;44640;-37
2023/09/15 07:42:09;;;;;;;6.00;2.10;;;;;;;;;;110334;267;40593;-37
2023/09/15 07:44:45;;;;;;;6.20;2.30;;;;;;;;;;110319;267;42826;-37
2023/09/15 07:47:19;;;;;;;6.00;2.00;;;;;;;;;;110294;267;43271;-37
2023/09/15 07:49:53;;;;;;;5.70;2.00;;;;;;;;;;110319;267;44906;-37
2023/09/15 07:52:29;;;;;;;5.70;2.10;;;;;;;;;;110345;267;39629;-37
2023/09/15 07:55:03;;;;;;;5.30;1.80;;;;;;;;;;110330;267;44061;-38
2023/09/15 07:57:37;;;;;;;5.10;1.80;;;;;;;;;;110280;267;42082;-38
2023/09/15 08:00:12;;;;;;;5.70;1.70;;;;;;;;;;110344;267;44782;-38
2023/09/15 08:02:46;;;;;;;4.50;2.10;;;;;;;;;;109644;267;892673;-37
2023/09/15 08:05:21;;;;;;;5.00;1.80;;;;;;;;;;110286;267;43161;-38
2023/09/15 08:07:55;;;;;;;5.30;1.80;;;;;;;;;;110306;267;41731;-37
2023/09/15 08:10:29;;;;;;;5.30;1.80;;;;;;;;;;110287;267;45286;-37
2023/09/15 08:13:02;;;;;;;5.80;1.70;;;;;;;;;;110365;267;39598;-37
2023/09/15 08:15:36;;;;;;;5.20;1.60;;;;;;;;;;110227;264;44008;-37
2023/09/15 08:18:09;;;;;;;5.20;1.70;;;;;;;;;;110302;266;41824;-37
2023/09/15 08:20:43;;;;;;;4.80;1.60;;;;;;;;;;110313;266;45652;-37
2023/09/15 08:23:16;;;;;;;6.10;1.90;;;;;;;;;;110354;266;39607;-37
2023/09/15 08:25:51;;;;;;;5.90;1.90;;;;;;;;;;110354;266;42730;-38
2023/09/15 08:28:25;;;;;;;4.30;1.60;;;;;;;;;;110375;266;42182;-38
2023/09/15 08:30:59;;;;;;;5.90;1.70;;;;;;;;;;110284;266;45496;-38
2023/09/15 08:33:32;;;;;;;5.00;1.70;;;;;;;;;;110357;266;39582;-37
2023/09/15 08:36:07;;;;;;;5.90;1.70;;;;;;;;;;110234;267;42477;-37
2023/09/15 08:38:40;;;;;;;4.30;1.50;;;;;;;;;;110867;267;43202;-37
2023/09/15 08:41:21;;;;;;;6.90;1.70;;;;;;;;;;110250;267;44515;-37
2023/09/15 08:43:55;;;;;;;3.50;1.30;;;;;;;;;;110352;267;39548;-37
2023/09/15 08:46:28;;;;;;;5.60;1.60;;;;;;;;;;110217;267;42759;-38
2023/09/15 08:49:02;;;;;;;4.90;1.40;;;;;;;;;;110377;267;42062;-37
2023/09/15 08:51:36;;;;;;;4.90;1.50;;;;;;;;;;110353;267;38727;-38
2023/09/15 08:54:10;;;;;;;5.20;1.70;;;;;;;;;;110352;267;39980;-37
2023/09/15 08:56:47;;;;;;;4.50;1.30;;;;;;;;;;110341;267;42730;-37
2023/09/15 08:59:23;;;;;;;4.40;1.60;;;;;;;;;;110285;267;42061;-38
2023/09/15 09:01:57;;;;;;;4.10;1.70;;;;;;;;;;110255;267;47343;-37
2023/09/15 09:04:31;;;;;;;3.10;1.20;;;;;;;;;;110355;267;39795;-37
2023/09/15 09:07:07;;;;;;;4.60;1.50;;;;;;;;;;110365;263;42984;-36
2023/09/15 09:09:42;;;;;;;3.80;1.40;;;;;;;;;;110394;266;42029;-35
2023/09/15 09:12:17;;;;;;;4.40;1.40;;;;;;;;;;110417;263;46158;-38
2023/09/15 09:14:54;;;;;;;4.90;1.40;;;;;;;;;;110319;260;40663;-37
2023/09/15 09:17:28;;;;;;;4.20;1.40;;;;;;;;;;110397;258;43428;-37
2023/09/15 09:20:02;;;;;;;3.80;1.30;;;;;;;;;;110333;266;42007;-37
2023/09/15 09:22:36;;;;;;;3.40;1.30;;;;;;;;;;110377;266;47340;-39
2023/09/15 09:25:11;;;;;;;3.80;1.40;;;;;;;;;;110335;263;40723;-38
2023/09/15 09:27:44;;;;;;;3.50;1.30;;;;;;;;;;110421;263;42699;-37
2023/09/15 09:30:18;;;;;;;4.00;1.30;;;;;;;;;;110442;266;41954;-37
2023/09/15 09:32:52;;;;;;;3.90;1.20;;;;;;;;;;110444;263;45018;-38
2023/09/15 09:35:25;;;;;;;4.00;1.40;;;;;;;;;;110376;263;40079;-38
2023/09/15 09:38:02;;;;;;;3.80;1.40;;;;;;;;;;110339;260;42791;-37
2023/09/15 09:40:38;;;;;;;2.90;1.20;;;;;;;;;;110382;260;41871;-38
2023/09/15 09:43:15;;;;;;;4.20;1.30;;;;;;;;;;110439;266;45989;-37
2023/09/15 09:45:53;;;;;;;3.70;1.20;;;;;;;;;;110349;266;39318;-37
2023/09/15 09:48:26;;;;;;;4.40;1.30;;;;;;;;;;110319;264;42776;-37
2023/09/15 09:51:00;;;;;;;3.30;1.30;;;;;;;;;;110112;267;175591;-38
2023/09/15 09:53:36;;;;;;;3.20;1.30;;;;;;;;;;110409;263;38684;-38
2023/09/15 09:56:10;;;;;;;4.00;1.30;;;;;;;;;;110389;264;39759;-38
2023/09/15 09:58:43;;;;;;;3.30;1.30;;;;;;;;;;110451;266;42875;-38
2023/09/15 10:01:17;;;;;;;3.50;1.20;;;;;;;;;;110400;266;41957;-38
2023/09/15 10:03:50;;;;;;;3.70;1.40;;;;;;;;;;110454;266;38691;-38
2023/09/15 10:06:24;;;;;;;3.90;1.40;;;;;;;;;;110510;259;39553;-38
2023/09/15 10:08:59;;;;;;;4.10;1.30;;;;;;;;;;110426;266;42500;-38
2023/09/15 10:11:33;;;;;;;4.00;1.20;;;;;;;;;;110372;260;41978;-38
2023/09/15 10:14:07;;;;;;;3.60;1.10;;;;;;;;;;110439;266;38871;-38
2023/09/15 10:16:41;;;;;;;4.30;1.30;;;;;;;;;;110455;266;39587;-38
2023/09/15 10:19:17;;;;;;;4.90;1.40;;;;;;;;;;110357;266;42932;-38
2023/09/15 10:21:51;;;;;;;3.30;1.40;;;;;;;;;;110421;260;42201;-38
2023/09/15 10:24:26;;;;;;;4.00;1.40;;;;;;;;;;110474;266;39979;-37
2023/09/15 10:27:00;;;;;;;3.40;1.20;;;;;;;;;;110384;263;40698;-37
2023/09/15 10:29:34;;;;;;;3.00;1.30;;;;;;;;;;110509;266;42873;-37
2023/09/15 10:32:08;;;;;;;4.20;1.40;;;;;;;;;;110416;263;42078;-37
2023/09/15 10:34:43;;;;;;;3.10;1.20;;;;;;;;;;110395;263;38648;-37
2023/09/15 10:37:17;;;;;;;3.00;1.10;;;;;;;;;;110529;266;39309;-37
2023/09/15 10:39:59;;;;;;;3.80;1.30;;;;;;;;;;110425;266;43986;-37
2023/09/15 10:42:36;;;;;;;3.50;1.20;;;;;;;;;;110288;266;42244;-38
2023/09/15 10:45:16;;;;;;;3.30;1.10;;;;;;;;;;110327;264;175518;-37
2023/09/15 10:48:01;;;;;;;3.90;1.20;;;;;;;;;;110438;266;39584;-38
2023/09/15 10:50:38;;;;;;;4.10;1.50;;;;;;;;;;110317;266;42802;-38
2023/09/15 10:53:15;;;;;;;4.50;1.60;;;;;;;;;;110427;266;41730;-39
2023/09/15 10:55:50;;;;;;;4.50;1.30;;;;;;;;;;110479;266;38953;-41
2023/09/15 10:58:26;;;;;;;4.50;1.40;;;;;;;;;;110321;266;39691;-39
2023/09/15 11:01:00;;;;;;;4.00;1.30;;;;;;;;;;110370;266;42922;-40
2023/09/15 11:03:36;;;;;;;3.50;1.30;;;;;;;;;;110425;266;42184;-39
2023/09/15 11:06:13;;;;;;;4.20;1.60;;;;;;;;;;110445;266;38962;-38
2023/09/15 11:08:46;;;;;;;3.50;1.40;;;;;;;;;;110399;258;39821;-37
2023/09/15 11:11:20;;;;;;;3.80;1.20;;;;;;;;;;110502;266;42892;-38
2023/09/15 11:13:54;;;;;;;4.30;1.30;;;;;;;;;;110369;258;42187;-38
2023/09/15 11:16:31;;;;;;;4.20;1.30;;;;;;;;;;110498;266;38489;-39
2023/09/15 11:19:06;;;;;;;3.90;1.50;;;;;;;;;;110382;260;40608;-40
2023/09/15 11:21:41;;;;;;;5.70;1.40;;;;;;;;;;110515;266;42471;-38
2023/09/15 11:24:15;;;;;;;4.00;1.30;;;;;;;;;;110362;263;43273;-39
2023/09/15 11:26:51;;;;;;;4.60;1.40;;;;;;;;;;110570;266;38996;-39
2023/09/15 11:29:31;;;;;;;4.00;1.60;;;;;;;;;;110438;258;39636;-39
2023/09/15 11:32:05;;;;;;;4.30;1.50;;;;;;;;;;110348;263;42491;-37
2023/09/15 11:34:39;;;;;;;4.00;1.50;;;;;;;;;;110313;263;41978;-37
2023/09/15 11:37:12;;;;;;;3.90;1.40;;;;;;;;;;110292;258;38664;-38
2023/09/15 11:39:54;;;;;;;4.80;1.50;;;;;;;;;;110365;266;40853;-38
2023/09/15 11:42:27;;;;;;;3.40;1.40;;;;;;;;;;110342;264;42735;-40
2023/09/15 11:45:00;;;;;;;3.70;1.50;;;;;;;;;;110300;266;42145;-37
2023/09/15 11:47:36;;;;;;;3.70;1.30;;;;;;;;;;110379;263;38856;-39
2023/09/15 11:50:12;;;;;;;3.30;1.30;;;;;;;;;;110332;266;40877;-38
2023/09/15 11:52:45;;;;;;;3.80;1.30;;;;;;;;;;110359;266;42861;-38
2023/09/15 11:55:24;;;;;;;3.40;1.30;;;;;;;;;;110348;266;42361;-38
2023/09/15 11:58:00;;;;;;;4.40;1.50;;;;;;;;;;110322;266;57625;-38
2023/09/15 12:00:35;;;;;;;3.00;1.30;;;;;;;;;;110366;266;39282;-39
2023/09/15 12:03:09;;;;;;;4.20;1.60;;;;;;;;;;110300;266;42437;-38
2023/09/15 12:05:43;;;;;;;5.00;1.60;;;;;;;;;;110222;266;174985;-38
2023/09/15 12:08:16;;;;;;;3.40;1.40;;;;;;;;;;110413;266;38643;-38
2023/09/15 12:10:51;;;;;;;4.80;1.50;;;;;;;;;;110218;266;40866;-39
2023/09/15 12:13:46;;;;;;;3.70;1.30;;;;;;;;;;110332;266;43400;-38
2023/09/15 12:16:22;;;;;;;3.40;1.50;;;;;;;;;;110382;266;48973;-38
2023/09/15 12:18:56;;;;;;;4.10;1.40;;;;;;;;;;110324;266;38895;-38
2023/09/15 12:21:30;;;;;;;4.40;1.40;;;;;;;;;;110418;266;40829;-38
2023/09/15 12:24:14;;;;;;;4.00;1.60;;;;;;;;;;110379;264;42876;-38
2023/09/15 12:26:50;;;;;;;4.20;1.50;;;;;;;;;;110445;260;48350;-38
2023/09/15 12:29:25;;;;;;;4.20;1.40;;;;;;;;;;110461;266;38781;-38
2023/09/15 12:31:58;;;;;;;4.90;1.40;;;;;;;;;;110438;266;39710;-38
2023/09/15 12:34:32;;;;;;;4.10;1.40;;;;;;;;;;110368;266;42808;-40
2023/09/15 12:37:10;;;;;;;3.40;1.40;;;;;;;;;;110418;266;47558;-39
2023/09/15 12:39:43;;;;;;;7.00;1.60;;;;;;;;;;110446;266;38928;-39
2023/09/15 12:42:17;;;;;;;3.70;1.30;;;;;;;;;;110335;266;40734;-37
2023/09/15 12:44:50;;;;;;;4.10;1.50;;;;;;;;;;110343;266;43900;-39
2023/09/15 12:47:24;;;;;;;3.00;1.30;;;;;;;;;;110462;263;48200;-39
2023/09/15 12:49:59;;;;;;;3.70;1.50;;;;;;;;;;110460;264;38938;-38
2023/09/15 12:52:33;;;;;;;3.90;1.40;;;;;;;;;;110322;266;40718;-38
2023/09/15 12:55:08;;;;;;;4.30;1.50;;;;;;;;;;110416;266;44063;-38
2023/09/15 12:57:41;;;;;;;3.90;1.50;;;;;;;;;;110431;258;49477;-38
2023/09/15 13:00:17;;;;;;;4.70;1.40;;;;;;;;;;110364;266;38709;-37
2023/09/15 13:02:51;;;;;;;6.20;1.40;;;;;;;;;;110415;266;39476;-38
2023/09/15 13:05:25;;;;;;;5.10;1.60;;;;;;;;;;110405;266;43059;-39
2023/09/15 13:08:00;;;;;;;4.10;1.40;;;;;;;;;;110456;258;49429;-39
2023/09/15 13:10:34;;;;;;;4.00;1.50;;;;;;;;;;110414;266;38684;-38
2023/09/15 13:13:08;;;;;;;5.10;1.50;;;;;;;;;;110495;266;39763;-37
2023/09/15 13:15:42;;;;;;;4.40;1.50;;;;;;;;;;110384;266;42846;-38
2023/09/15 13:18:23;;;;;;;4.70;1.50;;;;;;;;;;110333;263;49357;-38
2023/09/15 13:20:57;;;;;;;3.80;1.40;;;;;;;;;;110376;267;39194;-37
2023/09/15 13:23:30;;;;;;;3.50;1.50;;;;;;;;;;110362;267;39608;-38
2023/09/15 13:26:05;;;;;;;4.70;1.60;;;;;;;;;;110293;267;42781;-38
2023/09/15 13:28:39;;;;;;;3.90;1.40;;;;;;;;;;110355;267;43374;-38
2023/09/15 13:31:14;;;;;;;5.00;1.40;;;;;;;;;;110341;267;38744;-38
2023/09/15 13:33:47;;;;;;;4.20;1.60;;;;;;;;;;110352;267;39681;-38
2023/09/15 13:36:23;;;;;;;4.20;1.40;;;;;;;;;;110391;267;42999;-37
2023/09/15 13:38:56;;;;;;;4.60;1.40;;;;;;;;;;110341;267;42088;-38
2023/09/15 13:41:31;;;;;;;4.40;1.40;;;;;;;;;;110353;267;38647;-39
2023/09/15 13:44:05;;;;;;;3.30;1.40;;;;;;;;;;110173;267;39891;-39
2023/09/15 13:46:39;;;;;;;4.40;1.40;;;;;;;;;;110302;267;42772;-37
2023/09/15 13:49:13;;;;;;;4.50;1.40;;;;;;;;;;110377;267;43648;-39
2023/09/15 13:51:46;;;;;;;3.90;1.40;;;;;;;;;;110416;267;38739;-39
2023/09/15 13:54:20;;;;;;;4.10;1.40;;;;;;;;;;110367;267;39484;-40
2023/09/15 13:56:54;;;;;;;3.30;1.40;;;;;;;;;;110351;267;44053;-39
2023/09/15 13:59:28;;;;;;;4.00;1.30;;;;;;;;;;110359;267;42066;-40
2023/09/15 14:02:03;;;;;;;3.90;1.50;;;;;;;;;;110373;267;38746;-41
2023/09/15 14:04:36;;;;;;;4.40;1.50;;;;;;;;;;110341;267;39360;-35
2023/09/15 14:07:11;;;;;;;4.00;1.40;;;;;;;;;;110308;267;42748;-38
2023/09/15 14:09:45;;;;;;;4.20;1.60;;;;;;;;;;110389;267;43094;-35
2023/09/15 14:12:19;;;;;;;4.30;1.50;;;;;;;;;;110349;267;40026;-35
2023/09/15 14:14:56;;;;;;;3.70;1.30;;;;;;;;;;110316;267;39477;-35
2023/09/15 14:17:29;;;;;;;4.00;1.50;;;;;;;;;;110358;267;42787;-35
2023/09/15 14:20:03;;;;;;;3.00;1.30;;;;;;;;;;110411;267;43090;-35
2023/09/15 14:22:37;;;;;;;4.00;1.50;;;;;;;;;;110420;267;38844;-35
2023/09/15 14:25:11;;;;;;;4.20;1.30;;;;;;;;;;110438;267;39576;-35
2023/09/15 14:27:44;;;;;;;3.90;1.50;;;;;;;;;;110382;267;42880;-35
2023/09/15 14:30:18;;;;;;;4.40;1.70;;;;;;;;;;110372;267;42068;-35
2023/09/15 14:32:52;;;;;;;3.70;1.30;;;;;;;;;;110358;267;39596;-35
2023/09/15 14:35:26;;;;;;;3.80;1.40;;;;;;;;;;110371;267;40552;-35
2023/09/15 14:37:59;;;;;;;3.40;1.30;;;;;;;;;;110297;267;43992;-36
2023/09/15 14:40:33;;;;;;;3.80;1.50;;;;;;;;;;110388;267;42202;-35
2023/09/15 14:43:07;;;;;;;4.10;1.40;;;;;;;;;;110404;267;38724;-35
2023/09/15 14:45:41;;;;;;;3.60;1.50;;;;;;;;;;110366;267;39621;-35
2023/09/15 14:48:16;;;;;;;4.00;1.60;;;;;;;;;;110305;267;42716;-36
2023/09/15 14:50:53;;;;;;;3.50;1.40;;;;;;;;;;110387;267;43426;-36
2023/09/15 14:53:26;;;;;;;4.20;1.50;;;;;;;;;;110391;267;40285;-36
2023/09/15 14:55:59;;;;;;;3.50;1.40;;;;;;;;;;110381;267;39601;-36
2023/09/15 14:58:32;;;;;;;3.90;1.40;;;;;;;;;;110350;267;42699;-36
2023/09/15 15:01:07;;;;;;;3.70;1.40;;;;;;;;;;110385;267;42029;-36
2023/09/15 15:03:41;;;;;;;3.30;1.40;;;;;;;;;;110405;267;39737;-36
2023/09/15 15:06:17;;;;;;;4.60;1.50;;;;;;;;;;110363;267;39751;-36
2023/09/15 15:08:50;;;;;;;3.90;1.30;;;;;;;;;;110397;267;42796;-36
2023/09/15 15:11:24;;;;;;;4.10;1.50;;;;;;;;;;110395;267;42367;-36
2023/09/15 15:13:57;;;;;;;4.10;1.60;;;;;;;;;;110409;267;38860;-36
2023/09/15 15:16:31;;;;;;;4.80;1.40;;;;;;;;;;110370;267;39570;-36
2023/09/15 15:19:04;;;;;;;4.50;1.40;;;;;;;;;;110336;267;43857;-36
2023/09/15 15:21:39;;;;;;;3.80;1.40;;;;;;;;;;110371;267;42110;-36
2023/09/15 15:24:12;;;;;;;4.10;1.40;;;;;;;;;;110383;267;38661;-36
2023/09/15 15:26:46;;;;;;;3.20;1.50;;;;;;;;;;110362;267;39558;-36
2023/09/15 15:29:21;;;;;;;3.50;1.30;;;;;;;;;;110323;267;43918;-36
2023/09/15 15:31:55;;;;;;;3.70;1.30;;;;;;;;;;110344;267;43664;-36
2023/09/15 15:34:28;;;;;;;3.90;1.20;;;;;;;;;;110326;267;38724;-36